createdAt,value
2019-05-14T00:00:53.462Z,804.47
2019-05-14T00:01:53.445Z,804.51
2019-05-14T00:02:53.447Z,804.57
2019-05-14T00:03:53.445Z,804.58
2019-05-14T00:04:53.423Z,804.53
2019-05-14T00:05:53.545Z,804.57
2019-05-14T00:06:53.401Z,804.64
2019-05-14T00:07:53.385Z,804.68
2019-05-14T00:08:53.396Z,804.70
2019-05-14T00:09:53.372Z,804.69
2019-05-14T00:10:53.360Z,804.69
2019-05-14T00:11:53.338Z,804.69
2019-05-14T00:12:53.337Z,804.66
2019-05-14T00:13:53.336Z,804.64
2019-05-14T00:14:53.324Z,804.66
2019-05-14T00:15:53.304Z,804.69
2019-05-14T00:16:53.281Z,804.80
2019-05-14T00:17:53.284Z,804.83
2019-05-14T00:18:53.263Z,804.86
2019-05-14T00:20:06.274Z,804.85
2019-05-14T00:20:53.250Z,804.86
2019-05-14T00:21:53.224Z,804.94
2019-05-14T00:22:53.228Z,804.88
2019-05-14T00:23:53.215Z,804.93
2019-05-14T00:24:53.221Z,804.89
2019-05-14T00:25:53.184Z,804.84
2019-05-14T00:26:53.187Z,804.82
2019-05-14T00:27:53.168Z,804.81
2019-05-14T00:28:53.172Z,804.75
2019-05-14T00:29:53.167Z,804.74
2019-05-14T00:30:53.128Z,804.73
2019-05-14T00:31:53.123Z,804.76
2019-05-14T00:32:53.123Z,804.81
2019-05-14T00:33:53.110Z,804.86
2019-05-14T00:34:53.102Z,804.95
2019-05-14T00:35:53.089Z,805.11
2019-05-14T00:36:53.067Z,805.18
2019-05-14T00:37:53.065Z,805.19
2019-05-14T00:38:53.049Z,805.14
2019-05-14T00:39:53.059Z,805.17
2019-05-14T00:40:53.029Z,805.20
2019-05-14T00:41:53.025Z,805.23
2019-05-14T00:42:53.406Z,805.19
2019-05-14T00:43:52.996Z,805.14
2019-05-14T00:44:57.751Z,805.07
2019-05-14T00:45:52.971Z,805.03
2019-05-14T00:46:52.965Z,805.04
2019-05-14T00:47:52.953Z,805.12
2019-05-14T00:48:52.943Z,805.17
2019-05-14T00:49:52.950Z,805.18
2019-05-14T00:50:52.918Z,805.18
2019-05-14T00:51:52.916Z,805.24
2019-05-14T00:52:52.905Z,805.30
2019-05-14T00:53:52.888Z,805.33
2019-05-14T00:54:52.899Z,805.38
2019-05-14T00:55:52.877Z,805.43
2019-05-14T00:56:52.872Z,805.51
2019-05-14T00:57:52.850Z,805.53
2019-05-14T00:58:52.839Z,805.48
2019-05-14T00:59:52.829Z,805.51
2019-05-14T01:00:52.817Z,805.49
2019-05-14T01:01:52.807Z,805.42
2019-05-14T01:04:01.993Z,805.44
2019-05-14T01:05:02.984Z,805.33
2019-05-14T01:06:03.239Z,805.36
2019-05-14T01:07:02.949Z,805.39
2019-05-14T01:08:02.935Z,805.37
2019-05-14T01:09:02.923Z,805.33
2019-05-14T01:10:02.926Z,805.28
2019-05-14T01:11:02.913Z,805.18
2019-05-14T01:12:02.906Z,805.10
2019-05-14T01:13:02.887Z,805.02
2019-05-14T01:14:02.877Z,804.96
2019-05-14T01:15:10.221Z,804.89
2019-05-14T01:16:02.855Z,804.86
2019-05-14T01:17:02.855Z,804.82
2019-05-14T01:18:02.827Z,804.83
2019-05-14T01:19:02.817Z,804.84
2019-05-14T01:20:03.261Z,804.88
2019-05-14T01:21:02.804Z,804.85
2019-05-14T01:22:02.793Z,804.85
2019-05-14T01:23:02.774Z,804.84
2019-05-14T01:24:02.769Z,804.82
2019-05-14T01:25:02.775Z,804.81
2019-05-14T01:26:02.747Z,804.79
2019-05-14T01:27:02.730Z,804.79
2019-05-14T01:28:02.722Z,804.81
2019-05-14T01:29:02.721Z,804.79
2019-05-14T01:30:02.840Z,804.81
2019-05-14T01:31:02.701Z,804.80
2019-05-14T01:32:02.681Z,804.77
2019-05-14T01:33:02.673Z,804.78
2019-05-14T01:34:02.654Z,804.84
2019-05-14T01:35:02.649Z,804.91
2019-05-14T01:36:02.656Z,805.03
2019-05-14T01:37:02.717Z,805.12
2019-05-14T01:38:02.895Z,805.20
2019-05-14T01:39:02.603Z,805.25
2019-05-14T01:40:02.601Z,805.27
2019-05-14T01:41:02.604Z,805.29
2019-05-14T01:42:02.783Z,805.30
2019-05-14T01:43:02.816Z,805.33
2019-05-14T01:44:02.552Z,805.40
2019-05-14T01:45:02.750Z,805.48
2019-05-14T01:46:02.554Z,805.55
2019-05-14T01:47:02.509Z,805.60
2019-05-14T01:48:02.504Z,805.64
2019-05-14T01:49:02.505Z,805.60
2019-05-14T01:50:02.493Z,805.57
2019-05-14T01:51:02.504Z,805.52
2019-05-14T01:52:02.463Z,805.51
2019-05-14T01:53:03.226Z,805.55
2019-05-14T01:54:02.438Z,805.54
2019-05-14T01:55:02.426Z,805.56
2019-05-14T01:56:02.438Z,805.58
2019-05-14T01:57:02.412Z,805.63
2019-05-14T01:58:02.548Z,805.67
2019-05-14T01:59:02.391Z,805.72
2019-05-14T02:00:02.490Z,805.76
2019-05-14T02:01:02.383Z,805.80
2019-05-14T02:02:02.570Z,805.85
2019-05-14T02:03:02.348Z,805.93
2019-05-14T02:04:02.471Z,806.00
2019-05-14T02:05:02.326Z,806.10
2019-05-14T02:06:02.330Z,806.11
2019-05-14T02:07:02.497Z,806.11
2019-05-14T02:08:02.294Z,806.05
2019-05-14T02:09:02.279Z,805.99
2019-05-14T02:10:02.273Z,806.00
2019-05-14T02:11:02.284Z,805.98
2019-05-14T02:12:02.434Z,805.96
2019-05-14T02:13:02.242Z,805.94
2019-05-14T02:14:02.569Z,805.90
2019-05-14T02:15:02.207Z,805.86
2019-05-14T02:16:02.852Z,805.85
2019-05-14T02:17:02.208Z,805.84
2019-05-14T02:18:02.505Z,805.81
2019-05-14T02:19:02.177Z,805.75
2019-05-14T02:20:02.296Z,805.73
2019-05-14T02:21:02.167Z,805.76
2019-05-14T02:22:02.310Z,805.78
2019-05-14T02:23:02.140Z,805.78
2019-05-14T02:24:02.218Z,805.75
2019-05-14T02:25:02.461Z,805.78
2019-05-14T02:26:02.731Z,805.75
2019-05-14T02:27:02.179Z,805.71
2019-05-14T02:28:02.076Z,805.70
2019-05-14T02:29:02.165Z,805.66
2019-05-14T02:30:02.371Z,805.66
2019-05-14T02:31:03.820Z,805.55
2019-05-14T02:32:02.056Z,805.47
2019-05-14T02:33:02.040Z,805.40
2019-05-14T02:34:02.019Z,805.38
2019-05-14T02:35:02.000Z,805.39
2019-05-14T02:36:01.998Z,805.38
2019-05-14T02:37:01.992Z,805.43
2019-05-14T02:38:01.971Z,805.50
2019-05-14T02:39:01.964Z,805.59
2019-05-14T02:40:01.970Z,805.58
2019-05-14T02:41:01.949Z,805.57
2019-05-14T02:42:01.957Z,805.62
2019-05-14T02:43:01.919Z,805.64
2019-05-14T02:44:01.907Z,805.56
2019-05-14T02:45:01.896Z,805.52
2019-05-14T02:46:11.265Z,805.53
2019-05-14T02:47:01.887Z,805.49
2019-05-14T02:48:01.867Z,805.48
2019-05-14T02:49:01.855Z,805.43
2019-05-14T02:50:01.853Z,805.40
2019-05-14T02:51:01.838Z,805.43
2019-05-14T02:52:01.829Z,805.41
2019-05-14T02:53:01.812Z,805.46
2019-05-14T02:54:01.801Z,805.48
2019-05-14T02:55:01.795Z,805.53
2019-05-14T02:56:01.783Z,805.55
2019-05-14T02:57:01.782Z,805.58
2019-05-14T02:58:01.754Z,805.56
2019-05-14T02:59:05.612Z,805.65
2019-05-14T03:00:01.747Z,805.66
2019-05-14T03:01:01.737Z,805.75
2019-05-14T03:02:01.733Z,805.81
2019-05-14T03:03:01.714Z,805.80
2019-05-14T03:05:10.891Z,805.85
2019-05-14T03:06:11.878Z,805.60
2019-05-14T03:07:11.881Z,805.60
2019-05-14T03:08:11.847Z,805.60
2019-05-14T03:09:11.839Z,805.66
2019-05-14T03:10:11.836Z,805.66
2019-05-14T03:11:11.819Z,805.71
2019-05-14T03:12:11.835Z,805.71
2019-05-14T03:13:11.802Z,805.69
2019-05-14T03:14:11.808Z,805.74
2019-05-14T03:15:11.782Z,805.78
2019-05-14T03:16:25.974Z,805.78
2019-05-14T03:17:12.158Z,805.83
2019-05-14T03:18:11.752Z,805.84
2019-05-14T03:19:11.728Z,805.76
2019-05-14T03:20:11.721Z,805.72
2019-05-14T03:21:11.723Z,805.74
2019-05-14T03:22:11.695Z,805.73
2019-05-14T03:23:18.197Z,805.84
2019-05-14T03:24:11.679Z,805.86
2019-05-14T03:25:11.664Z,805.77
2019-05-14T03:26:11.649Z,805.70
2019-05-14T03:27:11.654Z,805.66
2019-05-14T03:28:11.657Z,805.59
2019-05-14T03:29:11.624Z,805.60
2019-05-14T03:30:13.277Z,805.58
2019-05-14T03:31:13.102Z,805.58
2019-05-14T03:32:13.634Z,805.63
2019-05-14T03:33:13.487Z,805.58
2019-05-14T03:34:13.699Z,805.52
2019-05-14T03:35:13.473Z,805.50
2019-05-14T03:36:17.679Z,805.56
2019-05-14T03:37:13.508Z,805.62
2019-05-14T03:38:11.554Z,805.62
2019-05-14T03:39:11.515Z,805.70
2019-05-14T03:40:11.505Z,805.78
2019-05-14T03:41:14.107Z,805.85
2019-05-14T03:42:11.492Z,805.89
2019-05-14T03:43:11.499Z,805.95
2019-05-14T03:44:11.477Z,805.99
2019-05-14T03:45:11.448Z,806.01
2019-05-14T03:46:11.443Z,806.05
2019-05-14T03:47:11.427Z,806.07
2019-05-14T03:48:11.443Z,806.10
2019-05-14T03:49:11.406Z,806.12
2019-05-14T03:50:11.397Z,806.05
2019-05-14T03:51:11.386Z,806.06
2019-05-14T03:52:11.367Z,806.01
2019-05-14T03:53:11.389Z,805.93
2019-05-14T03:54:12.653Z,805.88
2019-05-14T03:55:11.362Z,805.92
2019-05-14T03:56:11.332Z,805.94
2019-05-14T03:57:11.328Z,805.90
2019-05-14T03:58:11.343Z,805.82
2019-05-14T03:59:11.399Z,805.80
2019-05-14T04:00:11.301Z,805.87
2019-05-14T04:01:11.322Z,805.94
2019-05-14T04:02:11.272Z,805.93
2019-05-14T04:03:11.265Z,805.94
2019-05-14T04:04:11.253Z,805.99
2019-05-14T04:05:11.259Z,805.94
2019-05-14T04:06:11.219Z,805.93
2019-05-14T04:07:11.222Z,805.95
2019-05-14T04:08:11.222Z,805.99
2019-05-14T04:09:11.197Z,805.94
2019-05-14T04:10:11.186Z,805.90
2019-05-14T04:11:11.163Z,805.90
2019-05-14T04:12:11.152Z,805.93
2019-05-14T04:13:11.173Z,805.93
2019-05-14T04:14:11.169Z,805.93
2019-05-14T04:15:11.139Z,805.91
2019-05-14T04:16:11.110Z,805.88
2019-05-14T04:17:15.450Z,805.88
2019-05-14T04:18:11.101Z,805.90
2019-05-14T04:19:11.100Z,805.88
2019-05-14T04:20:11.076Z,805.92
2019-05-14T04:21:11.065Z,805.86
2019-05-14T04:22:11.077Z,805.85
2019-05-14T04:23:11.053Z,805.89
2019-05-14T04:24:11.044Z,805.89
2019-05-14T04:25:11.398Z,805.84
2019-05-14T04:26:11.026Z,805.81
2019-05-14T04:27:12.959Z,805.86
2019-05-14T04:28:10.989Z,805.85
2019-05-14T04:29:11.009Z,805.88
2019-05-14T04:30:10.959Z,805.85
2019-05-14T04:31:10.985Z,805.86
2019-05-14T04:32:11.061Z,805.79
2019-05-14T04:33:10.937Z,805.70
2019-05-14T04:34:10.995Z,805.68
2019-05-14T04:35:10.904Z,805.67
2019-05-14T04:36:10.910Z,805.69
2019-05-14T04:37:10.888Z,805.64
2019-05-14T04:38:10.876Z,805.55
2019-05-14T04:39:10.886Z,805.43
2019-05-14T04:40:10.873Z,805.40
2019-05-14T04:41:10.859Z,805.37
2019-05-14T04:42:10.827Z,805.29
2019-05-14T04:43:10.828Z,805.31
2019-05-14T04:44:10.823Z,805.29
2019-05-14T04:45:11.503Z,805.21
2019-05-14T04:46:11.083Z,805.19
2019-05-14T04:47:30.132Z,805.18
2019-05-14T04:48:27.313Z,805.15
2019-05-14T04:49:10.781Z,805.12
2019-05-14T04:50:11.065Z,805.11
2019-05-14T04:51:10.748Z,805.06
2019-05-14T04:52:10.753Z,805.05
2019-05-14T04:53:10.714Z,805.02
2019-05-14T04:54:10.718Z,804.98
2019-05-14T04:55:10.724Z,804.90
2019-05-14T04:56:10.678Z,804.86
2019-05-14T04:57:10.922Z,804.81
2019-05-14T04:58:10.667Z,804.74
2019-05-14T04:59:10.837Z,804.69
2019-05-14T05:00:12.322Z,804.57
2019-05-14T05:01:10.650Z,804.46
2019-05-14T05:02:10.634Z,804.35
2019-05-14T05:03:12.715Z,804.12
2019-05-14T05:04:10.618Z,803.87
2019-05-14T05:06:19.799Z,803.74
2019-05-14T05:07:20.780Z,803.52
2019-05-14T05:08:20.756Z,803.30
2019-05-14T05:09:20.754Z,803.11
2019-05-14T05:10:20.749Z,802.99
2019-05-14T05:11:21.577Z,802.91
2019-05-14T05:12:20.719Z,802.74
2019-05-14T05:13:20.706Z,802.66
2019-05-14T05:14:23.760Z,802.48
2019-05-14T05:15:20.722Z,802.34
2019-05-14T05:16:20.677Z,802.11
2019-05-14T05:17:20.666Z,802.15
2019-05-14T05:18:20.655Z,802.36
2019-05-14T05:19:20.636Z,802.33
2019-05-14T05:20:20.646Z,802.35
2019-05-14T05:21:20.623Z,802.40
2019-05-14T05:22:20.653Z,802.38
2019-05-14T05:23:20.619Z,802.62
2019-05-14T05:24:20.614Z,802.70
2019-05-14T05:25:20.611Z,802.67
2019-05-14T05:26:20.595Z,802.48
2019-05-14T05:27:20.598Z,802.39
2019-05-14T05:28:20.555Z,802.44
2019-05-14T05:29:20.540Z,802.41
2019-05-14T05:30:20.535Z,802.24
2019-05-14T05:31:20.522Z,802.07
2019-05-14T05:32:20.500Z,801.93
2019-05-14T05:33:20.484Z,801.98
2019-05-14T05:34:20.491Z,802.04
2019-05-14T05:35:20.494Z,802.06
2019-05-14T05:36:20.498Z,802.03
2019-05-14T05:37:20.451Z,802.13
2019-05-14T05:38:20.439Z,802.29
2019-05-14T05:39:20.435Z,802.37
2019-05-14T05:40:20.420Z,802.14
2019-05-14T05:41:20.440Z,802.22
2019-05-14T05:42:20.398Z,802.17
2019-05-14T05:43:20.684Z,801.92
2019-05-14T05:44:20.377Z,801.59
2019-05-14T05:45:20.761Z,801.50
2019-05-14T05:46:20.368Z,801.37
2019-05-14T05:47:20.365Z,801.38
2019-05-14T05:48:20.392Z,801.28
2019-05-14T05:49:20.317Z,801.06
2019-05-14T05:50:20.317Z,800.98
2019-05-14T05:51:20.306Z,800.93
2019-05-14T05:52:20.273Z,800.90
2019-05-14T05:53:20.267Z,800.95
2019-05-14T05:54:20.260Z,800.94
2019-05-14T05:55:20.262Z,800.83
2019-05-14T05:56:20.253Z,800.65
2019-05-14T05:57:20.364Z,800.48
2019-05-14T05:58:20.215Z,800.48
2019-05-14T05:59:20.198Z,800.47
2019-05-14T06:00:20.202Z,800.49
2019-05-14T06:01:20.211Z,800.47
2019-05-14T06:02:20.187Z,800.39
2019-05-14T06:03:20.876Z,800.41
2019-05-14T06:04:20.149Z,800.32
2019-05-14T06:05:20.134Z,800.10
2019-05-14T06:06:20.145Z,800.08
2019-05-14T06:07:20.222Z,800.17
2019-05-14T06:08:20.104Z,800.28
2019-05-14T06:09:20.209Z,800.23
2019-05-14T06:10:20.083Z,800.30
2019-05-14T06:11:20.100Z,800.28
2019-05-14T06:12:20.336Z,800.17
2019-05-14T06:13:20.062Z,800.04
2019-05-14T06:14:20.039Z,800.08
2019-05-14T06:15:20.032Z,800.04
2019-05-14T06:16:20.096Z,800.11
2019-05-14T06:17:20.006Z,800.06
2019-05-14T06:18:22.165Z,799.97
2019-05-14T06:19:20.000Z,800.08
2019-05-14T06:20:20.003Z,799.97
2019-05-14T06:21:19.984Z,799.70
2019-05-14T06:22:19.974Z,799.70
2019-05-14T06:23:19.938Z,799.65
2019-05-14T06:24:19.942Z,799.50
2019-05-14T06:25:21.107Z,799.57
2019-05-14T06:26:19.932Z,799.43
2019-05-14T06:27:19.910Z,799.34
2019-05-14T06:28:20.914Z,799.43
2019-05-14T06:29:19.885Z,799.65
2019-05-14T06:30:19.971Z,799.68
2019-05-14T06:31:20.851Z,799.62
2019-05-14T06:32:19.851Z,799.62
2019-05-14T06:33:19.826Z,799.54
2019-05-14T06:34:19.828Z,799.50
2019-05-14T06:35:19.818Z,799.44
2019-05-14T06:36:19.945Z,799.33
2019-05-14T06:37:19.842Z,799.33
2019-05-14T06:38:19.781Z,799.36
2019-05-14T06:39:19.759Z,799.34
2019-05-14T06:40:19.762Z,799.40
2019-05-14T06:41:19.750Z,799.41
2019-05-14T06:42:19.748Z,799.41
2019-05-14T06:43:19.772Z,799.46
2019-05-14T06:44:19.709Z,799.38
2019-05-14T06:45:19.697Z,799.29
2019-05-14T06:46:19.757Z,799.14
2019-05-14T06:47:19.708Z,799.13
2019-05-14T06:48:30.766Z,799.13
2019-05-14T06:49:19.658Z,799.16
2019-05-14T06:50:20.527Z,799.13
2019-05-14T06:51:20.283Z,798.96
2019-05-14T06:52:19.665Z,798.77
2019-05-14T06:53:19.611Z,798.69
2019-05-14T06:54:19.821Z,798.60
2019-05-14T06:55:19.587Z,798.49
2019-05-14T06:56:21.664Z,798.28
2019-05-14T06:57:19.575Z,798.11
2019-05-14T06:58:20.476Z,798.19
2019-05-14T06:59:19.545Z,798.18
2019-05-14T07:00:19.541Z,797.99
2019-05-14T07:01:19.689Z,797.89
2019-05-14T07:02:19.579Z,797.92
2019-05-14T07:03:19.510Z,797.93
2019-05-14T07:04:19.499Z,798.08
2019-05-14T07:05:19.812Z,797.90
2019-05-14T07:07:29.972Z,797.78
2019-05-14T07:08:29.657Z,797.65
2019-05-14T07:09:29.642Z,797.79
2019-05-14T07:10:29.631Z,797.72
2019-05-14T07:11:29.615Z,797.53
2019-05-14T07:12:29.639Z,797.31
2019-05-14T07:13:29.614Z,797.29
2019-05-14T07:14:29.593Z,797.32
2019-05-14T07:15:29.578Z,797.03
2019-05-14T07:16:29.569Z,796.85
2019-05-14T07:17:30.087Z,796.72
2019-05-14T07:18:45.215Z,796.64
2019-05-14T07:19:29.796Z,796.69
2019-05-14T07:20:29.539Z,796.63
2019-05-14T07:21:29.512Z,796.61
2019-05-14T07:22:29.581Z,796.45
2019-05-14T07:23:29.502Z,796.31
2019-05-14T07:24:29.486Z,796.64
2019-05-14T07:25:29.481Z,796.95
2019-05-14T07:26:29.777Z,797.30
2019-05-14T07:27:29.464Z,797.19
2019-05-14T07:28:29.773Z,797.30
2019-05-14T07:29:29.543Z,797.40
2019-05-14T07:30:29.404Z,797.24
2019-05-14T07:31:29.837Z,797.04
2019-05-14T07:32:29.442Z,796.81
2019-05-14T07:33:29.617Z,796.58
2019-05-14T07:34:29.359Z,796.34
2019-05-14T07:35:29.386Z,796.10
2019-05-14T07:36:29.546Z,795.95
2019-05-14T07:37:29.491Z,795.93
2019-05-14T07:38:29.695Z,795.93
2019-05-14T07:39:29.403Z,796.08
2019-05-14T07:40:29.304Z,796.11
2019-05-14T07:41:29.288Z,796.35
2019-05-14T07:42:29.308Z,796.27
2019-05-14T07:43:29.283Z,796.27
2019-05-14T07:44:29.773Z,796.26
2019-05-14T07:45:29.242Z,796.03
2019-05-14T07:46:29.267Z,795.79
2019-05-14T07:47:29.313Z,795.76
2019-05-14T07:48:29.216Z,795.61
2019-05-14T07:49:29.303Z,795.51
2019-05-14T07:50:29.392Z,795.37
2019-05-14T07:51:29.174Z,795.74
2019-05-14T07:52:29.180Z,795.85
2019-05-14T07:53:38.803Z,795.74
2019-05-14T07:54:29.135Z,795.67
2019-05-14T07:55:29.139Z,795.69
2019-05-14T07:56:29.911Z,795.74
2019-05-14T07:57:29.170Z,795.67
2019-05-14T07:58:29.285Z,795.40
2019-05-14T07:59:32.138Z,795.19
2019-05-14T08:00:29.918Z,795.20
2019-05-14T08:01:29.912Z,795.13
2019-05-14T08:02:29.180Z,795.11
2019-05-14T08:03:29.907Z,794.99
2019-05-14T08:04:29.204Z,794.98
2019-05-14T08:05:29.026Z,795.00
2019-05-14T08:06:29.129Z,794.95
2019-05-14T08:07:30.148Z,794.86
2019-05-14T08:08:29.478Z,794.80
2019-05-14T08:09:29.033Z,794.67
2019-05-14T08:10:29.097Z,794.52
2019-05-14T08:11:28.951Z,794.95
2019-05-14T08:12:28.943Z,794.97
2019-05-14T08:13:28.984Z,794.95
2019-05-14T08:14:33.644Z,795.45
2019-05-14T08:15:28.905Z,795.83
2019-05-14T08:16:29.219Z,796.17
2019-05-14T08:17:28.890Z,796.01
2019-05-14T08:18:29.356Z,795.83
2019-05-14T08:19:31.398Z,795.77
2019-05-14T08:20:28.852Z,795.46
2019-05-14T08:21:29.302Z,795.20
2019-05-14T08:22:29.280Z,794.91
2019-05-14T08:23:28.856Z,794.68
2019-05-14T08:24:30.021Z,794.49
2019-05-14T08:25:28.803Z,794.43
2019-05-14T08:26:29.471Z,794.37
2019-05-14T08:27:31.078Z,794.17
2019-05-14T08:28:29.134Z,794.30
2019-05-14T08:29:28.835Z,794.70
2019-05-14T08:30:28.782Z,794.79
2019-05-14T08:31:29.404Z,794.64
2019-05-14T08:32:28.713Z,794.52
2019-05-14T08:33:29.134Z,794.80
2019-05-14T08:34:32.211Z,794.80
2019-05-14T08:35:29.105Z,794.73
2019-05-14T08:36:28.792Z,794.78
2019-05-14T08:37:28.673Z,794.58
2019-05-14T08:38:30.534Z,794.46
2019-05-14T08:39:28.753Z,794.44
2019-05-14T08:40:28.833Z,794.54
2019-05-14T08:41:28.950Z,794.88
2019-05-14T08:42:29.167Z,794.91
2019-05-14T08:43:29.365Z,794.99
2019-05-14T08:44:29.348Z,794.82
2019-05-14T08:45:28.581Z,794.77
2019-05-14T08:46:28.570Z,794.69
2019-05-14T08:47:29.185Z,794.65
2019-05-14T08:48:30.475Z,794.61
2019-05-14T08:49:39.047Z,794.63
2019-05-14T08:50:28.514Z,794.42
2019-05-14T08:51:29.555Z,794.34
2019-05-14T08:52:28.961Z,794.10
2019-05-14T08:53:28.932Z,793.83
2019-05-14T08:54:28.575Z,793.37
2019-05-14T08:55:29.632Z,793.21
2019-05-14T08:56:28.458Z,793.44
2019-05-14T08:57:29.242Z,793.58
2019-05-14T08:58:29.911Z,793.52
2019-05-14T08:59:28.798Z,793.28
2019-05-14T09:00:28.696Z,793.15
2019-05-14T09:01:29.239Z,793.12
2019-05-14T09:02:28.731Z,793.42
2019-05-14T09:03:28.925Z,793.52
2019-05-14T09:04:30.338Z,793.87
2019-05-14T09:05:28.749Z,794.13
2019-05-14T09:06:29.002Z,794.27
2019-05-14T09:08:38.942Z,794.31
2019-05-14T09:09:38.536Z,794.00
2019-05-14T09:10:40.268Z,793.88
2019-05-14T09:11:45.258Z,793.76
2019-05-14T09:12:38.906Z,793.74
2019-05-14T09:13:38.578Z,793.95
2019-05-14T09:14:38.955Z,794.02
2019-05-14T09:15:38.603Z,793.80
2019-05-14T09:16:46.462Z,793.41
2019-05-14T09:17:38.989Z,793.06
2019-05-14T09:18:38.879Z,792.65
2019-05-14T09:19:39.486Z,792.49
2019-05-14T09:20:38.535Z,792.81
2019-05-14T09:21:39.738Z,792.91
2019-05-14T09:22:39.762Z,792.48
2019-05-14T09:23:39.135Z,792.09
2019-05-14T09:24:38.887Z,791.77
2019-05-14T09:25:46.934Z,792.24
2019-05-14T09:26:39.096Z,792.28
2019-05-14T09:27:38.943Z,792.20
2019-05-14T09:28:39.192Z,792.19
2019-05-14T09:29:39.487Z,791.75
2019-05-14T09:30:38.328Z,791.57
2019-05-14T09:31:39.275Z,791.66
2019-05-14T09:32:38.989Z,791.84
2019-05-14T09:33:38.923Z,792.12
2019-05-14T09:34:39.314Z,791.61
2019-05-14T09:35:38.762Z,791.53
2019-05-14T09:36:39.526Z,791.51
2019-05-14T09:37:39.578Z,791.32
2019-05-14T09:38:42.336Z,791.01
2019-05-14T09:40:49.104Z,792.03
2019-05-14T09:41:49.954Z,791.87
2019-05-14T09:42:50.247Z,792.08
2019-05-14T09:43:49.852Z,791.82
2019-05-14T09:44:49.893Z,791.58
2019-05-14T09:45:49.814Z,791.66
2019-05-14T09:46:50.626Z,791.71
2019-05-14T09:47:50.745Z,791.86
2019-05-14T09:48:49.812Z,791.74
2019-05-14T09:49:49.797Z,792.16
2019-05-14T09:50:49.760Z,792.24
2019-05-14T09:51:50.631Z,792.45
2019-05-14T09:52:49.746Z,792.51
2019-05-14T09:53:49.731Z,792.38
2019-05-14T09:54:49.798Z,792.32
2019-05-14T09:55:49.698Z,792.40
2019-05-14T09:56:50.034Z,792.47
2019-05-14T09:57:49.681Z,792.45
2019-05-14T09:58:49.916Z,792.34
2019-05-14T09:59:53.165Z,792.36
2019-05-14T10:00:49.653Z,792.72
2019-05-14T10:01:50.642Z,792.67
2019-05-14T10:02:49.651Z,792.50
2019-05-14T10:03:49.852Z,792.59
2019-05-14T10:04:49.639Z,792.77
2019-05-14T10:05:50.129Z,792.42
2019-05-14T10:06:49.580Z,792.31
2019-05-14T10:07:49.774Z,791.80
2019-05-14T10:08:49.572Z,791.40
2019-05-14T10:09:49.583Z,791.30
2019-05-14T10:10:49.565Z,791.15
2019-05-14T10:11:49.539Z,791.43
2019-05-14T10:12:56.010Z,791.36
2019-05-14T10:13:51.368Z,791.11
2019-05-14T10:14:49.527Z,790.97
2019-05-14T10:15:49.488Z,791.14
2019-05-14T10:16:49.469Z,791.34
2019-05-14T10:17:50.144Z,791.02
2019-05-14T10:18:52.719Z,790.87
2019-05-14T10:19:49.984Z,791.03
2019-05-14T10:20:49.659Z,791.34
2019-05-14T10:21:49.508Z,791.51
2019-05-14T10:22:49.432Z,791.50
2019-05-14T10:23:49.418Z,791.49
2019-05-14T10:24:49.511Z,791.50
2019-05-14T10:25:49.416Z,791.43
2019-05-14T10:26:49.379Z,791.16
2019-05-14T10:27:49.631Z,790.71
2019-05-14T10:28:49.342Z,790.59
2019-05-14T10:29:49.353Z,790.29
2019-05-14T10:30:49.323Z,790.07
2019-05-14T10:31:50.033Z,789.89
2019-05-14T10:32:49.403Z,790.02
2019-05-14T10:33:49.285Z,790.67
2019-05-14T10:34:49.292Z,791.31
2019-05-14T10:35:49.304Z,791.44
2019-05-14T10:36:49.275Z,791.57
2019-05-14T10:37:49.305Z,791.70
2019-05-14T10:38:49.261Z,791.60
2019-05-14T10:39:49.234Z,791.46
2019-05-14T10:40:49.199Z,791.29
2019-05-14T10:41:49.199Z,791.50
2019-05-14T10:42:49.560Z,791.75
2019-05-14T10:43:49.814Z,791.84
2019-05-14T10:44:49.211Z,791.79
2019-05-14T10:45:49.700Z,791.69
2019-05-14T10:46:49.146Z,791.41
2019-05-14T10:47:49.503Z,791.11
2019-05-14T10:48:49.116Z,791.02
2019-05-14T10:49:49.135Z,790.70
2019-05-14T10:50:59.058Z,790.38
2019-05-14T10:51:49.093Z,790.20
2019-05-14T10:52:49.152Z,790.70
2019-05-14T10:53:49.283Z,791.09
2019-05-14T10:54:55.726Z,790.83
2019-05-14T10:55:49.100Z,790.66
2019-05-14T10:56:49.529Z,790.61
2019-05-14T10:57:54.118Z,790.70
2019-05-14T10:58:49.292Z,790.45
2019-05-14T10:59:49.020Z,790.79
2019-05-14T11:00:49.585Z,790.65
2019-05-14T11:01:48.972Z,790.17
2019-05-14T11:02:49.265Z,789.86
2019-05-14T11:03:48.950Z,790.00
2019-05-14T11:04:48.997Z,789.91
2019-05-14T11:05:48.994Z,789.55
2019-05-14T11:06:49.175Z,789.24
2019-05-14T11:07:48.925Z,789.44
2019-05-14T11:08:49.427Z,789.91
2019-05-14T11:09:48.956Z,790.22
2019-05-14T11:10:49.841Z,790.03
2019-05-14T11:11:48.855Z,789.90
2019-05-14T11:12:50.676Z,790.25
2019-05-14T11:13:48.831Z,790.36
2019-05-14T11:14:49.379Z,790.16
2019-05-14T11:15:48.950Z,789.87
2019-05-14T11:16:48.850Z,789.64
2019-05-14T11:17:49.002Z,789.80
2019-05-14T11:18:49.775Z,789.76
2019-05-14T11:19:48.789Z,789.49
2019-05-14T11:20:51.423Z,789.09
2019-05-14T11:21:48.743Z,788.85
2019-05-14T11:22:49.246Z,788.82
2019-05-14T11:23:49.237Z,789.19
2019-05-14T11:24:49.287Z,789.68
2019-05-14T11:25:48.901Z,789.49
2019-05-14T11:26:49.032Z,789.90
2019-05-14T11:27:49.354Z,789.91
2019-05-14T11:28:49.246Z,789.58
2019-05-14T11:29:49.233Z,789.01
2019-05-14T11:30:49.404Z,788.76
2019-05-14T11:31:48.743Z,788.97
2019-05-14T11:32:49.325Z,789.26
2019-05-14T11:33:49.781Z,789.45
2019-05-14T11:34:48.613Z,789.37
2019-05-14T11:35:48.607Z,789.57
2019-05-14T11:36:49.668Z,789.85
2019-05-14T11:37:48.572Z,789.67
2019-05-14T11:38:50.859Z,789.21
2019-05-14T11:39:48.874Z,789.09
2019-05-14T11:41:59.006Z,788.99
2019-05-14T11:42:59.470Z,788.95
2019-05-14T11:43:59.422Z,788.80
2019-05-14T11:44:59.185Z,788.37
2019-05-14T11:45:59.530Z,788.25
2019-05-14T11:47:02.445Z,788.63
2019-05-14T11:47:59.155Z,789.12
2019-05-14T11:48:59.562Z,789.93
2019-05-14T11:49:59.305Z,790.22
2019-05-14T11:50:59.625Z,790.40
2019-05-14T11:52:06.801Z,790.53
2019-05-14T11:52:59.105Z,790.37
2019-05-14T11:53:59.085Z,790.08
2019-05-14T11:54:59.080Z,789.75
2019-05-14T11:55:59.110Z,789.38
2019-05-14T11:56:59.095Z,789.28
2019-05-14T11:57:59.063Z,789.49
2019-05-14T11:58:59.201Z,789.32
2019-05-14T11:59:59.036Z,788.89
2019-05-14T12:00:59.010Z,788.52
2019-05-14T12:01:59.463Z,788.72
2019-05-14T12:02:58.986Z,789.60
2019-05-14T12:03:59.762Z,789.94
2019-05-14T12:04:58.956Z,789.74
2019-05-14T12:05:58.983Z,789.71
2019-05-14T12:06:59.339Z,789.44
2019-05-14T12:07:58.934Z,788.85
2019-05-14T12:08:58.930Z,788.95
2019-05-14T12:09:58.918Z,789.04
2019-05-14T12:10:59.380Z,789.34
2019-05-14T12:11:58.952Z,788.99
2019-05-14T12:12:58.882Z,788.57
2019-05-14T12:13:59.897Z,788.07
2019-05-14T12:14:58.851Z,787.86
2019-05-14T12:15:59.174Z,787.47
2019-05-14T12:16:59.984Z,787.41
2019-05-14T12:17:59.715Z,787.61
2019-05-14T12:18:59.149Z,787.87
2019-05-14T12:19:59.494Z,787.92
2019-05-14T12:20:59.361Z,787.98
2019-05-14T12:22:07.034Z,788.07
2019-05-14T12:22:59.251Z,788.10
2019-05-14T12:24:04.331Z,788.49
2019-05-14T12:24:58.729Z,789.04
2019-05-14T12:25:58.923Z,789.11
2019-05-14T12:26:58.838Z,788.67
2019-05-14T12:27:59.048Z,788.47
2019-05-14T12:28:59.404Z,788.18
2019-05-14T12:29:59.817Z,788.05
2019-05-14T12:30:58.675Z,788.05
2019-05-14T12:31:58.749Z,787.84
2019-05-14T12:32:59.141Z,787.62
2019-05-14T12:33:58.641Z,787.16
2019-05-14T12:34:59.361Z,786.80
2019-05-14T12:36:00.526Z,786.88
2019-05-14T12:36:58.625Z,787.11